createdAt,value
2022-11-05T00:01:58.736Z,9.14
2022-11-05T00:04:43.739Z,9.23
2022-11-05T00:07:31.256Z,9.36
2022-11-05T00:10:01.865Z,9.19
2022-11-05T00:12:48.511Z,9.07
2022-11-05T00:15:33.972Z,9.00
2022-11-05T00:18:01.624Z,8.85
2022-11-05T00:20:29.308Z,8.77
2022-11-05T00:23:20.720Z,8.76
2022-11-05T00:25:55.738Z,8.63
2022-11-05T00:28:24.925Z,8.69
2022-11-05T00:30:52.757Z,8.66
2022-11-05T00:33:20.434Z,8.61
2022-11-05T00:35:48.067Z,8.57
2022-11-05T00:38:15.755Z,8.21
2022-11-05T00:40:43.415Z,8.25
2022-11-05T00:43:28.719Z,7.96
2022-11-05T00:45:57.888Z,7.96
2022-11-05T00:48:43.081Z,8.16
2022-11-05T00:51:10.904Z,8.20
2022-11-05T00:53:38.590Z,8.36
2022-11-05T00:56:06.530Z,8.71
2022-11-05T00:58:34.227Z,8.86
2022-11-05T01:01:03.649Z,8.93
2022-11-05T01:03:33.452Z,8.59
2022-11-05T01:06:08.758Z,8.56
2022-11-05T01:08:36.634Z,8.65
2022-11-05T01:11:10.235Z,8.08
2022-11-05T01:13:38.077Z,8.00
2022-11-05T01:16:09.543Z,8.15
2022-11-05T01:18:37.873Z,8.32
2022-11-05T01:21:11.912Z,8.36
2022-11-05T01:23:39.567Z,8.23
2022-11-05T01:26:07.133Z,8.18
2022-11-05T01:28:34.645Z,8.57
2022-11-05T01:31:02.150Z,9.03
2022-11-05T01:33:30.984Z,8.60
2022-11-05T01:35:58.424Z,9.06
2022-11-05T01:38:25.923Z,8.92
2022-11-05T01:40:53.622Z,8.78
2022-11-05T01:43:23.264Z,9.11
2022-11-05T01:45:51.287Z,9.04
2022-11-05T01:48:19.734Z,8.96
2022-11-05T01:50:49.318Z,8.85
2022-11-05T01:53:18.724Z,8.72
2022-11-05T01:55:47.692Z,8.68
2022-11-05T01:58:15.796Z,8.84
2022-11-05T02:00:43.312Z,8.92
2022-11-05T02:03:11.054Z,9.11
2022-11-05T02:05:38.976Z,8.63
2022-11-05T02:08:07.916Z,8.82
2022-11-05T02:10:35.379Z,8.96
2022-11-05T02:13:03.710Z,8.68
2022-11-05T02:15:34.838Z,8.64
2022-11-05T02:18:05.723Z,8.38
2022-11-05T02:20:34.090Z,8.36
2022-11-05T02:23:34.711Z,8.36
2022-11-05T02:26:11.859Z,8.36
2022-11-05T02:28:45.872Z,8.29
2022-11-05T02:31:15.013Z,8.24
2022-11-05T02:33:42.962Z,8.31
2022-11-05T02:36:15.535Z,8.19
2022-11-05T02:38:44.134Z,8.07
2022-11-05T02:41:14.018Z,8.14
2022-11-05T02:43:45.783Z,7.67
2022-11-05T02:46:15.995Z,7.77
2022-11-05T02:48:44.858Z,7.99
2022-11-05T02:51:13.483Z,7.87
2022-11-05T02:53:43.017Z,8.16
2022-11-05T02:56:10.943Z,8.01
2022-11-05T02:58:38.424Z,7.97
2022-11-05T03:01:07.012Z,8.00
2022-11-05T03:03:36.565Z,8.32
2022-11-05T03:06:22.004Z,8.26
2022-11-05T03:08:57.109Z,8.32
2022-11-05T03:11:24.893Z,8.05
2022-11-05T03:13:53.434Z,7.82
2022-11-05T03:16:22.590Z,7.84
2022-11-05T03:18:55.026Z,8.02
2022-11-05T03:21:22.987Z,7.81
2022-11-05T03:23:50.953Z,7.88
2022-11-05T03:26:19.694Z,8.05
2022-11-05T03:28:48.881Z,8.18
2022-11-05T03:31:16.360Z,7.98
2022-11-05T03:33:44.103Z,7.82
2022-11-05T03:36:16.087Z,8.01
2022-11-05T03:38:44.169Z,7.94
2022-11-05T03:41:12.440Z,7.97
2022-11-05T03:43:41.342Z,7.63
2022-11-05T03:46:09.232Z,7.77
2022-11-05T03:48:37.743Z,7.87
2022-11-05T03:51:06.254Z,7.88
2022-11-05T03:53:36.194Z,7.81
2022-11-05T03:56:04.923Z,7.35
2022-11-05T03:58:32.462Z,7.64
2022-11-05T04:01:00.221Z,7.72
2022-11-05T04:03:27.699Z,7.53
2022-11-05T04:06:09.115Z,7.59
2022-11-05T04:08:55.686Z,7.41
2022-11-05T04:11:40.707Z,7.47
2022-11-05T04:14:08.194Z,7.59
2022-11-05T04:16:53.343Z,7.56
2022-11-05T04:19:41.609Z,7.76
2022-11-05T04:22:26.475Z,7.73
2022-11-05T04:24:55.336Z,7.41
2022-11-05T04:27:22.794Z,7.23
2022-11-05T04:30:07.604Z,7.58
2022-11-05T04:32:35.058Z,7.63
2022-11-05T04:35:02.517Z,7.62
2022-11-05T04:37:29.998Z,7.58
2022-11-05T04:39:58.831Z,7.64
2022-11-05T04:42:26.315Z,7.59
2022-11-05T04:44:53.787Z,7.50
2022-11-05T04:47:21.239Z,7.43
2022-11-05T04:49:48.800Z,7.49
2022-11-05T04:52:17.876Z,7.58
2022-11-05T04:54:45.347Z,7.52
2022-11-05T04:57:14.147Z,7.45
2022-11-05T04:59:41.744Z,7.24
2022-11-05T05:02:09.478Z,7.49
2022-11-05T05:04:37.132Z,7.52
2022-11-05T05:07:04.779Z,7.72
2022-11-05T05:09:32.537Z,7.79
2022-11-05T05:12:00.182Z,7.70
2022-11-05T05:14:29.152Z,7.74
2022-11-05T05:16:56.799Z,7.51
2022-11-05T05:19:25.180Z,7.52
2022-11-05T05:21:51.904Z,7.54
2022-11-05T05:24:21.100Z,7.32
2022-11-05T05:26:50.526Z,7.55
2022-11-05T05:29:18.441Z,7.52
2022-11-05T05:31:47.276Z,7.44
2022-11-05T05:34:15.101Z,7.32
2022-11-05T05:36:42.662Z,7.58
2022-11-05T05:39:10.805Z,7.50
2022-11-05T05:41:38.315Z,7.56
2022-11-05T05:44:05.875Z,7.43
2022-11-05T05:46:33.318Z,7.40
2022-11-05T05:49:03.049Z,7.35
2022-11-05T05:51:32.951Z,7.48
2022-11-05T05:54:00.438Z,7.39
2022-11-05T05:56:27.906Z,7.45
2022-11-05T05:58:55.728Z,7.40
2022-11-05T06:01:23.226Z,7.35
2022-11-05T06:03:50.738Z,7.54
2022-11-05T06:06:20.978Z,7.36
2022-11-05T06:08:48.857Z,7.42
2022-11-05T06:11:16.395Z,7.46
2022-11-05T06:13:43.889Z,7.33
2022-11-05T06:16:11.378Z,7.50
2022-11-05T06:18:38.959Z,7.40
2022-11-05T06:21:06.988Z,7.31
2022-11-05T06:23:36.419Z,7.62
2022-11-05T06:26:03.946Z,7.79
2022-11-05T06:28:31.452Z,7.70
2022-11-05T06:30:58.988Z,7.76
2022-11-05T06:33:26.788Z,7.92
2022-11-05T06:35:54.322Z,7.89
2022-11-05T06:38:21.951Z,7.86
2022-11-05T06:40:50.792Z,7.90
2022-11-05T06:43:18.273Z,8.00
2022-11-05T06:45:45.711Z,7.83
2022-11-05T06:48:13.208Z,8.12
2022-11-05T06:50:44.201Z,7.99
2022-11-05T06:53:12.357Z,7.47
2022-11-05T06:55:40.113Z,7.64
2022-11-05T06:58:08.963Z,7.82
2022-11-05T07:00:36.512Z,7.90
2022-11-05T07:03:04.608Z,8.03
2022-11-05T07:05:32.236Z,8.24
2022-11-05T07:07:59.691Z,8.38
2022-11-05T07:10:27.150Z,8.38
2022-11-05T07:12:54.627Z,8.06
2022-11-05T07:15:23.446Z,8.49
2022-11-05T07:17:50.898Z,8.59
2022-11-05T07:20:18.536Z,8.66
2022-11-05T07:22:45.978Z,8.47
2022-11-05T07:25:13.452Z,8.31
2022-11-05T07:27:41.035Z,8.70
2022-11-05T07:30:09.330Z,8.56
2022-11-05T07:32:41.074Z,8.36
2022-11-05T07:35:09.512Z,8.57
2022-11-05T07:37:42.892Z,8.50
2022-11-05T07:40:11.175Z,8.34
2022-11-05T07:42:38.645Z,8.55
2022-11-05T07:45:06.631Z,8.46
2022-11-05T07:47:34.080Z,8.40
2022-11-05T07:50:02.946Z,8.40
2022-11-05T07:52:30.402Z,8.00
2022-11-05T07:54:57.890Z,8.11
2022-11-05T07:57:25.467Z,8.52
2022-11-05T07:59:52.909Z,8.37
2022-11-05T08:02:20.627Z,8.31
2022-11-05T08:04:48.284Z,8.50
2022-11-05T08:07:17.152Z,8.58
2022-11-05T08:09:44.637Z,8.49
2022-11-05T08:12:12.124Z,8.81
2022-11-05T08:14:39.606Z,8.72
2022-11-05T08:17:07.119Z,8.30
2022-11-05T08:19:34.564Z,7.95
2022-11-05T08:22:02.050Z,8.62
2022-11-05T08:24:30.918Z,8.65
2022-11-05T08:26:58.397Z,8.38
2022-11-05T08:29:26.025Z,8.37
2022-11-05T08:31:53.559Z,8.66
2022-11-05T08:34:21.188Z,8.51
2022-11-05T08:36:48.675Z,8.78
2022-11-05T08:39:18.699Z,8.41
2022-11-05T08:41:47.963Z,8.52
2022-11-05T08:44:15.641Z,9.09
2022-11-05T08:46:43.104Z,8.39
2022-11-05T08:49:10.734Z,8.80
2022-11-05T08:51:38.429Z,8.83
2022-11-05T08:54:06.275Z,9.07
2022-11-05T08:56:33.775Z,9.26
2022-11-05T08:59:02.641Z,8.78
2022-11-05T09:01:30.262Z,9.01
2022-11-05T09:03:57.831Z,9.16
2022-11-05T09:06:25.343Z,8.75
2022-11-05T09:08:52.840Z,9.40
2022-11-05T09:11:20.396Z,9.22
2022-11-05T09:13:47.851Z,9.51
2022-11-05T09:16:17.919Z,9.67
2022-11-05T09:18:45.352Z,9.80
2022-11-05T09:21:12.840Z,10.07
2022-11-05T09:23:40.391Z,10.15
2022-11-05T09:26:07.872Z,10.08
2022-11-05T09:28:35.340Z,10.43
2022-11-05T09:31:05.839Z,9.99
2022-11-05T09:33:35.363Z,10.33
2022-11-05T09:36:02.983Z,10.22
2022-11-05T09:38:30.668Z,10.30
2022-11-05T09:40:59.020Z,10.31
2022-11-05T09:43:31.651Z,10.28
2022-11-05T09:45:59.620Z,10.12
2022-11-05T09:48:28.927Z,10.20
2022-11-05T09:50:58.211Z,11.05
2022-11-05T09:53:25.719Z,11.15
2022-11-05T09:55:54.516Z,11.24
2022-11-05T09:58:28.555Z,10.84
2022-11-05T10:00:56.660Z,11.07
2022-11-05T10:03:24.531Z,11.00
2022-11-05T10:05:52.215Z,11.43
2022-11-05T10:08:23.272Z,11.34
2022-11-05T10:10:51.667Z,11.24
2022-11-05T10:13:21.836Z,11.17
2022-11-05T10:15:51.966Z,11.63
2022-11-05T10:18:20.459Z,11.26
2022-11-05T10:20:48.009Z,11.06
2022-11-05T10:23:16.384Z,11.40
2022-11-05T10:25:46.641Z,11.73
2022-11-05T10:28:15.910Z,12.00
2022-11-05T10:30:43.668Z,12.07
2022-11-05T10:33:11.633Z,11.73
2022-11-05T10:35:41.620Z,11.35
2022-11-05T10:38:10.065Z,11.60
2022-11-05T10:40:39.113Z,11.95
2022-11-05T10:43:09.566Z,11.89
2022-11-05T10:45:40.244Z,11.96
2022-11-05T10:48:20.518Z,11.76
2022-11-05T10:50:47.996Z,11.88
2022-11-05T10:53:16.287Z,11.79
2022-11-05T10:55:44.733Z,12.34
2022-11-05T10:58:28.943Z,11.77
2022-11-05T11:01:04.053Z,12.81
2022-11-05T11:03:33.601Z,11.99
2022-11-05T11:06:01.584Z,12.40
2022-11-05T11:08:29.496Z,12.88
2022-11-05T11:10:58.727Z,12.93
2022-11-05T11:13:29.172Z,12.96
2022-11-05T11:15:56.785Z,12.57
2022-11-05T11:18:26.543Z,12.99
2022-11-05T11:20:54.329Z,13.04
2022-11-05T11:23:21.860Z,12.83
2022-11-05T11:25:51.929Z,12.50
2022-11-05T11:28:21.253Z,12.50
2022-11-05T11:30:52.058Z,12.76
2022-11-05T11:33:20.935Z,12.73
2022-11-05T11:35:48.444Z,13.75
2022-11-05T11:38:16.007Z,13.96
2022-11-05T11:40:43.626Z,13.89
2022-11-05T11:43:15.011Z,14.11
2022-11-05T11:45:45.516Z,14.15
2022-11-05T11:48:15.565Z,13.92
2022-11-05T11:50:43.647Z,13.57
2022-11-05T11:53:18.035Z,13.63
2022-11-05T11:55:56.238Z,13.22
2022-11-05T11:58:25.197Z,13.36
2022-11-05T12:00:58.367Z,13.59
2022-11-05T12:03:28.780Z,13.10
2022-11-05T12:05:56.628Z,13.18
2022-11-05T12:08:28.709Z,14.08
2022-11-05T12:10:58.648Z,13.77
2022-11-05T12:13:49.683Z,13.77
2022-11-05T12:16:20.807Z,14.04
2022-11-05T12:18:50.346Z,13.92
2022-11-05T12:21:40.772Z,14.08
2022-11-05T12:24:11.634Z,13.78
2022-11-05T12:26:42.002Z,14.09
2022-11-05T12:29:19.312Z,13.93
2022-11-05T12:31:49.841Z,13.63
2022-11-05T12:34:26.427Z,13.62
2022-11-05T12:37:10.856Z,13.88
2022-11-05T12:39:42.887Z,14.38
2022-11-05T12:42:13.088Z,14.21
2022-11-05T12:44:44.687Z,14.15
2022-11-05T12:47:18.875Z,14.03
2022-11-05T12:49:54.568Z,13.77
2022-11-05T12:52:36.269Z,13.71
2022-11-05T12:55:05.192Z,13.83
2022-11-05T12:57:33.344Z,13.29
2022-11-05T13:00:03.399Z,13.33
2022-11-05T13:02:31.728Z,13.11
2022-11-05T13:05:02.266Z,13.59
2022-11-05T13:07:29.947Z,13.60
2022-11-05T13:09:58.577Z,13.60
2022-11-05T13:12:27.460Z,13.11
2022-11-05T13:14:56.058Z,13.87
2022-11-05T13:17:24.223Z,13.33
2022-11-05T13:19:52.629Z,14.07
2022-11-05T13:22:24.687Z,13.61
2022-11-05T13:24:52.773Z,13.67
2022-11-05T13:27:29.015Z,13.67
2022-11-05T13:29:57.647Z,13.42
2022-11-05T13:32:28.437Z,13.67
2022-11-05T13:34:56.365Z,13.36
2022-11-05T13:37:48.418Z,13.63
2022-11-05T13:40:16.348Z,13.71
2022-11-05T13:42:48.259Z,13.57
2022-11-05T13:45:20.720Z,13.52
2022-11-05T13:47:57.625Z,13.72
2022-11-05T13:50:34.435Z,13.69
2022-11-05T13:53:10.899Z,13.59
2022-11-05T13:55:49.762Z,13.42
2022-11-05T13:58:32.106Z,13.33
2022-11-05T14:01:02.684Z,13.32
2022-11-05T14:03:30.242Z,13.65
2022-11-05T14:06:00.267Z,13.87
2022-11-05T14:08:29.175Z,13.30
2022-11-05T14:11:00.428Z,13.84
2022-11-05T14:13:28.573Z,13.52
2022-11-05T14:15:57.249Z,13.31
2022-11-05T14:18:36.744Z,13.18
2022-11-05T14:21:04.931Z,13.45
2022-11-05T14:23:41.201Z,13.18
2022-11-05T14:26:23.306Z,13.31
2022-11-05T14:28:51.779Z,13.30
2022-11-05T14:31:47.230Z,13.41
2022-11-05T14:34:20.266Z,12.97
2022-11-05T14:36:47.748Z,12.97
2022-11-05T14:39:25.196Z,13.12
2022-11-05T14:41:54.696Z,12.31
2022-11-05T14:44:22.127Z,13.06
2022-11-05T14:46:50.359Z,12.88
2022-11-05T14:49:18.228Z,12.64
2022-11-05T14:51:46.159Z,12.15
2022-11-05T14:54:18.096Z,12.59
2022-11-05T14:56:48.571Z,12.77
2022-11-05T14:59:36.560Z,12.70
2022-11-05T15:02:04.594Z,12.64
2022-11-05T15:04:32.485Z,12.28
2022-11-05T15:07:18.537Z,12.13
2022-11-05T15:09:47.296Z,12.43
2022-11-05T15:12:17.771Z,12.84
2022-11-05T15:14:51.793Z,12.55
2022-11-05T15:17:20.916Z,12.64
2022-11-05T15:19:48.399Z,12.50
2022-11-05T15:22:23.053Z,12.42
2022-11-05T15:24:50.506Z,12.38
2022-11-05T15:27:19.182Z,12.21
2022-11-05T15:29:46.616Z,11.82
2022-11-05T15:32:17.453Z,12.00
2022-11-05T15:34:51.264Z,12.07
2022-11-05T15:37:22.963Z,12.28
2022-11-05T15:39:50.994Z,11.98
2022-11-05T15:42:22.109Z,12.23
2022-11-05T15:44:50.018Z,12.05
2022-11-05T15:47:20.372Z,11.99
2022-11-05T15:49:48.648Z,12.30
2022-11-05T15:52:16.581Z,12.28
2022-11-05T15:54:44.367Z,12.03
2022-11-05T15:57:20.424Z,11.65
2022-11-05T15:59:48.032Z,11.68
2022-11-05T16:02:33.077Z,11.86
2022-11-05T16:05:00.920Z,11.51
2022-11-05T16:07:28.363Z,11.44
2022-11-05T16:09:56.889Z,11.63
2022-11-05T16:12:26.439Z,11.64
2022-11-05T16:14:57.778Z,11.74
2022-11-05T16:17:26.000Z,12.05
2022-11-05T16:19:54.995Z,11.87
2022-11-05T16:22:22.508Z,11.78
2022-11-05T16:24:50.031Z,11.83
2022-11-05T16:27:19.847Z,11.82
2022-11-05T16:29:48.714Z,11.90
2022-11-05T16:32:17.400Z,11.88
2022-11-05T16:34:46.786Z,11.46
2022-11-05T16:37:16.217Z,11.55
2022-11-05T16:39:43.732Z,11.85
2022-11-05T16:42:37.876Z,11.83
2022-11-05T16:45:05.952Z,11.90
2022-11-05T16:47:33.401Z,12.09
2022-11-05T16:50:00.835Z,12.15
2022-11-05T16:52:29.886Z,11.98
2022-11-05T16:54:57.331Z,12.01
2022-11-05T16:57:25.515Z,11.80
2022-11-05T16:59:53.348Z,11.70
2022-11-05T17:02:20.962Z,11.63
2022-11-05T17:04:48.500Z,11.91
2022-11-05T17:07:15.943Z,11.96
2022-11-05T17:09:44.764Z,11.79
2022-11-05T17:12:12.419Z,11.67
2022-11-05T17:14:39.906Z,11.78
2022-11-05T17:17:07.417Z,11.99
2022-11-05T17:19:34.886Z,11.65
2022-11-05T17:22:02.329Z,12.02
2022-11-05T17:24:29.820Z,11.92
2022-11-05T17:26:58.635Z,11.84
2022-11-05T17:29:26.112Z,12.19
2022-11-05T17:31:53.597Z,12.18
2022-11-05T17:34:21.034Z,12.00
2022-11-05T17:36:48.533Z,11.85
2022-11-05T17:39:16.185Z,11.98
2022-11-05T17:41:44.459Z,11.79
2022-11-05T17:44:13.276Z,12.02
2022-11-05T17:46:40.760Z,12.12
2022-11-05T17:49:08.310Z,11.84
2022-11-05T17:51:35.815Z,12.13
2022-11-05T17:54:04.036Z,11.67
2022-11-05T17:56:34.957Z,12.15
2022-11-05T17:59:04.542Z,11.99
2022-11-05T18:01:33.992Z,11.96
2022-11-05T18:04:08.347Z,11.69
2022-11-05T18:06:36.729Z,12.27
2022-11-05T18:09:04.201Z,12.16
2022-11-05T18:11:31.902Z,12.14
2022-11-05T18:13:59.368Z,12.16
2022-11-05T18:16:26.817Z,12.29
2022-11-05T18:18:55.625Z,12.23
2022-11-05T18:21:23.082Z,11.78
2022-11-05T18:23:50.545Z,12.07
2022-11-05T18:26:18.178Z,12.09
2022-11-05T18:28:45.631Z,11.93
2022-11-05T18:31:17.888Z,11.92
2022-11-05T18:33:45.904Z,11.83
2022-11-05T18:36:18.749Z,11.94
2022-11-05T18:38:46.211Z,11.86
2022-11-05T18:41:13.713Z,11.83
2022-11-05T18:43:41.193Z,12.21
2022-11-05T18:46:08.819Z,11.98
2022-11-05T18:48:36.431Z,12.26
2022-11-05T18:51:07.540Z,11.97
2022-11-05T18:53:36.339Z,12.30
2022-11-05T18:56:07.489Z,12.18
2022-11-05T18:58:35.028Z,12.34
2022-11-05T19:01:06.466Z,12.15
2022-11-05T19:03:34.467Z,12.23
2022-11-05T19:06:03.243Z,11.99
2022-11-05T19:08:31.717Z,12.06
2022-11-05T19:11:00.705Z,11.92
2022-11-05T19:13:28.172Z,11.98
2022-11-05T19:15:55.619Z,12.10
2022-11-05T19:18:23.112Z,11.78
2022-11-05T19:20:50.550Z,11.80
2022-11-05T19:23:18.028Z,11.68
2022-11-05T19:25:45.531Z,11.76
2022-11-05T19:28:14.652Z,11.90
2022-11-05T19:30:42.691Z,11.86
2022-11-05T19:33:10.340Z,11.59
2022-11-05T19:35:41.385Z,11.85
2022-11-05T19:38:09.364Z,12.11
2022-11-05T19:40:37.527Z,11.92
2022-11-05T19:43:05.043Z,12.15
2022-11-05T19:45:49.063Z,12.15
2022-11-05T19:48:19.844Z,12.26
2022-11-05T19:50:47.822Z,12.04
2022-11-05T19:53:15.308Z,12.05
2022-11-05T19:55:44.117Z,12.45
2022-11-05T19:58:12.144Z,12.12
2022-11-05T20:00:41.211Z,11.97
2022-11-05T20:03:08.728Z,11.95
2022-11-05T20:05:36.219Z,12.07
2022-11-05T20:08:03.694Z,11.96
2022-11-05T20:10:31.148Z,11.96
2022-11-05T20:12:58.614Z,12.04
2022-11-05T20:15:26.060Z,12.18
2022-11-05T20:17:55.001Z,11.92
2022-11-05T20:20:22.586Z,12.11
2022-11-05T20:22:51.414Z,11.90
2022-11-05T20:25:18.986Z,11.96
2022-11-05T20:27:46.466Z,12.22
2022-11-05T20:30:14.013Z,12.13
2022-11-05T20:32:41.468Z,12.01
2022-11-05T20:35:10.945Z,11.87
2022-11-05T20:37:38.425Z,12.40
2022-11-05T20:40:06.504Z,12.15
2022-11-05T20:42:33.983Z,12.31
2022-11-05T20:45:01.644Z,11.85
2022-11-05T20:47:29.131Z,12.03
2022-11-05T20:49:58.323Z,11.87
2022-11-05T20:52:27.196Z,12.19
2022-11-05T20:54:54.687Z,12.17
2022-11-05T20:57:22.314Z,12.15
2022-11-05T20:59:49.753Z,12.18
2022-11-05T21:02:17.445Z,12.44
2022-11-05T21:04:45.192Z,12.47
2022-11-05T21:07:12.675Z,12.46
2022-11-05T21:09:41.488Z,12.09
2022-11-05T21:12:11.802Z,11.96
2022-11-05T21:14:39.447Z,12.08
2022-11-05T21:17:07.326Z,11.76
2022-11-05T21:19:35.177Z,11.96
2022-11-05T21:22:02.659Z,11.77
2022-11-05T21:24:30.130Z,11.64
2022-11-05T21:26:59.022Z,12.42
2022-11-05T21:29:26.576Z,12.54
2022-11-05T21:31:54.171Z,11.91
2022-11-05T21:34:21.681Z,11.69
2022-11-05T21:36:50.249Z,11.69
2022-11-05T21:39:17.939Z,11.87
2022-11-05T21:41:45.407Z,12.05
2022-11-05T21:44:14.202Z,12.01
2022-11-05T21:46:41.648Z,12.10
2022-11-05T21:49:09.374Z,11.53
2022-11-05T21:51:54.240Z,12.03
2022-11-05T21:54:39.156Z,12.13
2022-11-05T21:57:24.466Z,12.27
2022-11-05T21:59:55.189Z,12.30
2022-11-05T22:02:24.288Z,12.02
2022-11-05T22:04:54.380Z,12.12
2022-11-05T22:07:23.671Z,12.25
2022-11-05T22:09:51.512Z,12.53
2022-11-05T22:12:19.294Z,12.21
2022-11-05T22:14:47.007Z,12.22
2022-11-05T22:17:16.457Z,11.98
2022-11-05T22:19:44.207Z,12.33
2022-11-05T22:22:12.363Z,11.95
2022-11-05T22:24:40.416Z,12.35
2022-11-05T22:27:09.550Z,11.79
2022-11-05T22:29:37.982Z,11.81
2022-11-05T22:32:05.862Z,11.92
2022-11-05T22:34:34.671Z,11.95
2022-11-05T22:37:02.132Z,11.94
2022-11-05T22:39:29.595Z,12.12
2022-11-05T22:41:57.549Z,11.96
2022-11-05T22:44:25.276Z,11.86
2022-11-05T22:46:52.763Z,11.91
2022-11-05T22:49:20.283Z,11.97
2022-11-05T22:51:50.330Z,12.22
2022-11-05T22:54:17.809Z,12.01
2022-11-05T22:56:45.334Z,11.75
2022-11-05T22:59:13.474Z,11.89
2022-11-05T23:01:42.503Z,11.88
2022-11-05T23:04:10.060Z,12.12
2022-11-05T23:06:55.244Z,11.84
2022-11-05T23:09:42.432Z,11.79
2022-11-05T23:12:10.665Z,11.90
2022-11-05T23:14:38.150Z,12.11
2022-11-05T23:17:23.127Z,11.61
2022-11-05T23:20:07.895Z,11.80
2022-11-05T23:22:52.571Z,11.56
2022-11-05T23:25:21.954Z,11.45
2022-11-05T23:27:50.205Z,11.60
2022-11-05T23:30:18.831Z,11.27
2022-11-05T23:32:45.320Z,11.44
2022-11-05T23:35:12.896Z,11.41
2022-11-05T23:37:58.043Z,11.41
2022-11-05T23:40:27.651Z,11.31
2022-11-05T23:43:12.808Z,11.57
2022-11-05T23:45:58.220Z,11.12
2022-11-05T23:48:27.719Z,11.76
2022-11-05T23:50:58.130Z,11.74
2022-11-05T23:53:25.728Z,11.66
2022-11-05T23:55:54.557Z,11.52
2022-11-05T23:58:22.018Z,11.85
